AGGH

Honiara International Airport

Honiara, Solomon Islands

AGGH 110000Z 27004KT 9999 -DZ SCT017 FEW018CB BKN0.35 26/26 Q1008

Observed Flight Rules
Dec-11 @ 00:00 UTC (17 minutes ago) Visual Flight Rules
Wind Visibility Clouds Conditions
270° at 4 knots 10,000+ meters
  • Scattered at 1,700' AGL
  • Few at 1,800' AGL
  • Light Drizzle
Temperatures Readings
Current 26°C / 79°F
Dewpoint 26°C / 79°F
Humidity 100%
Altimeter 29.76" Hg
Pressure 1008 hPa
Elevation 9
Observed Flight Rules
Dec-11 @ 00:00 UTC
(17 minutes ago)
VFR
Wind Visibility
270° at 4 knots 10,000+ meters
Clouds
  • Scattered at 1,700' AGL
  • Few at 1,800' AGL
Conditions
  • Light Drizzle
Temperature Dewpoint
26°C / 79°F 26°C / 79°F
Humidity Altimeter Pressure
100% 29.76" Hg 1008 hPa